createdAt,value
2022-10-21T00:01:21.088Z,93.52
2022-10-21T00:06:20.845Z,92.87
2022-10-21T00:11:20.718Z,92.67
2022-10-21T00:16:20.581Z,92.26
2022-10-21T00:21:20.602Z,90.80
2022-10-21T00:26:20.554Z,91.20
2022-10-21T00:31:20.676Z,90.20
2022-10-21T00:36:20.431Z,90.70
2022-10-21T00:41:20.360Z,90.20
2022-10-21T00:46:20.303Z,90.50
2022-10-21T00:51:20.290Z,90.70
2022-10-21T00:56:20.213Z,90.44
2022-10-21T01:01:21.631Z,90.64
2022-10-21T01:06:20.216Z,90.44
2022-10-21T01:11:20.009Z,91.09
2022-10-21T01:16:20.025Z,91.19
2022-10-21T01:21:19.918Z,90.93
2022-10-21T01:26:19.909Z,91.64
2022-10-21T01:31:19.929Z,91.68
2022-10-21T01:36:19.731Z,92.29
2022-10-21T01:41:19.768Z,92.09
2022-10-21T01:46:19.661Z,92.70
2022-10-21T01:51:19.643Z,91.89
2022-10-21T01:56:19.619Z,91.83
2022-10-21T02:01:19.687Z,92.38
2022-10-21T02:06:21.437Z,93.79
2022-10-21T02:11:19.370Z,94.29
2022-10-21T02:16:19.296Z,94.90
2022-10-21T02:21:19.356Z,94.40
2022-10-21T02:26:19.249Z,94.20
2022-10-21T02:31:19.188Z,94.85
2022-10-21T02:36:20.140Z,94.90
2022-10-21T02:41:20.050Z,94.70
2022-10-21T02:46:19.013Z,94.15
2022-10-21T02:51:19.936Z,93.03
2022-10-21T02:56:18.920Z,92.79
2022-10-21T03:01:18.913Z,92.68
2022-10-21T03:06:18.718Z,92.38
2022-10-21T03:11:18.723Z,92.07
2022-10-21T03:16:19.735Z,91.02
2022-10-21T03:21:18.649Z,91.16
2022-10-21T03:26:18.516Z,92.07
2022-10-21T03:31:18.585Z,91.97
2022-10-21T03:36:27.345Z,91.77
2022-10-21T03:41:18.297Z,91.56
2022-10-21T03:46:18.347Z,91.71
2022-10-21T03:51:18.164Z,92.28
2022-10-21T03:56:18.162Z,91.97
2022-10-21T04:01:18.147Z,91.77
2022-10-21T04:06:18.064Z,92.07
2022-10-21T04:11:18.083Z,91.56
2022-10-21T04:16:18.014Z,92.18
2022-10-21T04:21:17.998Z,91.56
2022-10-21T04:26:17.882Z,91.97
2022-10-21T04:31:17.805Z,92.22
2022-10-21T04:36:17.707Z,92.52
2022-10-21T04:41:17.649Z,92.52
2022-10-21T04:46:17.591Z,92.42
2022-10-21T04:51:17.530Z,92.68
2022-10-21T04:56:17.589Z,92.79
2022-10-21T05:01:17.583Z,92.79
2022-10-21T05:06:17.392Z,91.97
2022-10-21T05:11:17.299Z,92.33
2022-10-21T05:16:17.246Z,92.24
2022-10-21T05:21:17.202Z,91.68
2022-10-21T05:26:17.193Z,90.32
2022-10-21T05:31:17.118Z,90.02
2022-10-21T05:36:18.504Z,90.12
2022-10-21T05:41:17.075Z,90.36
2022-10-21T05:46:17.011Z,89.86
2022-10-21T05:51:16.857Z,91.02
2022-10-21T05:56:16.865Z,91.08
2022-10-21T06:01:16.911Z,91.08
2022-10-21T06:06:16.799Z,90.97
2022-10-21T06:11:16.673Z,89.81
2022-10-21T06:16:16.621Z,89.01
2022-10-21T06:21:16.546Z,89.76
2022-10-21T06:26:17.558Z,90.22
2022-10-21T06:31:16.459Z,89.61
2022-10-21T06:36:16.369Z,89.51
2022-10-21T06:41:16.313Z,90.53
2022-10-21T06:46:16.244Z,90.32
2022-10-21T06:51:16.248Z,90.32
2022-10-21T06:56:16.176Z,90.32
2022-10-21T07:01:27.731Z,90.32
2022-10-21T07:06:17.048Z,90.48
2022-10-21T07:11:15.946Z,90.48
2022-10-21T07:16:15.973Z,89.57
2022-10-21T07:21:15.886Z,89.83
2022-10-21T07:26:15.813Z,89.08
2022-10-21T07:31:15.764Z,89.59
2022-10-21T07:36:15.694Z,90.24
2022-10-21T07:41:15.643Z,90.75
2022-10-21T07:46:15.599Z,90.40
2022-10-21T07:51:16.562Z,90.60
2022-10-21T07:56:15.472Z,89.75
2022-10-21T08:01:15.524Z,88.70
2022-10-21T08:06:15.364Z,88.25
2022-10-21T08:11:15.301Z,88.04
2022-10-21T08:16:15.241Z,88.04
2022-10-21T08:21:15.220Z,88.25
2022-10-21T08:26:15.158Z,87.50
2022-10-21T08:31:15.098Z,88.04
2022-10-21T08:36:15.022Z,88.15
2022-10-21T08:41:14.974Z,88.85
2022-10-21T08:46:14.925Z,89.87
2022-10-21T08:51:14.851Z,91.08
2022-10-21T08:56:19.603Z,92.13
2022-10-21T09:01:15.762Z,92.13
2022-10-21T09:06:14.704Z,93.29
2022-10-21T09:11:14.715Z,93.35
2022-10-21T09:16:14.574Z,94.10
2022-10-21T09:21:14.511Z,94.20
2022-10-21T09:26:14.460Z,94.75
2022-10-21T09:31:14.452Z,95.46
2022-10-21T09:36:14.349Z,94.85
2022-10-21T09:41:14.331Z,94.81
2022-10-21T09:46:14.257Z,94.60
2022-10-21T09:51:14.198Z,94.91
2022-10-21T09:56:14.141Z,94.66
2022-10-21T10:01:14.080Z,94.46
2022-10-21T10:06:14.023Z,93.85
2022-10-21T10:11:13.983Z,94.56
2022-10-21T10:16:13.924Z,94.76
2022-10-21T10:21:13.841Z,93.91
2022-10-21T10:26:13.801Z,94.11
2022-10-21T10:31:13.750Z,94.01
2022-10-21T10:36:13.735Z,93.46
2022-10-21T10:41:13.610Z,92.50
2022-10-21T10:46:13.602Z,92.21
2022-10-21T10:51:13.532Z,92.50
2022-10-21T10:56:13.484Z,92.30
2022-10-21T11:01:13.496Z,92.45
2022-10-21T11:06:13.362Z,92.96
2022-10-21T11:11:13.318Z,92.50
2022-10-21T11:16:13.255Z,92.96
2022-10-21T11:21:13.203Z,93.32
2022-10-21T11:26:13.141Z,92.30
2022-10-21T11:31:13.075Z,92.65
2022-10-21T11:36:13.033Z,92.65
2022-10-21T11:41:13.005Z,92.65
2022-10-21T11:46:12.928Z,92.25
2022-10-21T11:51:16.441Z,91.54
2022-10-21T11:56:12.828Z,91.64
2022-10-21T12:01:12.762Z,90.94
2022-10-21T12:06:12.709Z,90.34
2022-10-21T12:11:12.631Z,90.26
2022-10-21T12:16:12.629Z,89.21
2022-10-21T12:21:12.561Z,88.86
2022-10-21T12:26:12.459Z,90.39
2022-10-21T12:31:12.421Z,89.44
2022-10-21T12:36:12.354Z,87.08
2022-10-21T12:41:12.311Z,86.72
2022-10-21T12:46:12.243Z,85.96
2022-10-21T12:51:12.206Z,85.60
2022-10-21T12:56:12.135Z,85.02
2022-10-21T13:01:12.133Z,84.43
2022-10-21T13:06:12.040Z,84.23
2022-10-21T13:11:11.987Z,82.58
2022-10-21T13:16:11.916Z,83.87
2022-10-21T13:21:11.880Z,84.17
2022-10-21T13:26:11.815Z,84.61
2022-10-21T13:31:11.760Z,84.91
2022-10-21T13:36:11.702Z,85.25
2022-10-21T13:41:11.678Z,85.08
2022-10-21T13:46:11.626Z,84.47
2022-10-21T13:51:11.551Z,84.17
2022-10-21T13:56:11.591Z,84.47
2022-10-21T14:01:11.552Z,84.51
2022-10-21T14:06:11.477Z,85.11
2022-10-21T14:11:11.322Z,84.17
2022-10-21T14:16:11.327Z,83.87
2022-10-21T14:21:11.205Z,83.97
2022-10-21T14:26:11.279Z,83.63
2022-10-21T14:31:11.271Z,83.57
2022-10-21T14:36:11.203Z,84.07
2022-10-21T14:41:10.996Z,84.51
2022-10-21T14:46:10.923Z,83.17
2022-10-21T14:51:10.871Z,83.91
2022-10-21T14:56:15.193Z,83.81
2022-10-21T15:01:10.725Z,83.51
2022-10-21T15:06:10.811Z,84.65
2022-10-21T15:11:10.733Z,84.75
2022-10-21T15:16:10.697Z,84.35
2022-10-21T15:21:10.645Z,84.25
2022-10-21T15:26:10.568Z,85.60
2022-10-21T15:31:10.486Z,85.30
2022-10-21T15:36:10.367Z,86.10
2022-10-21T15:41:10.546Z,85.80
2022-10-21T15:46:10.321Z,85.80
2022-10-21T15:51:10.267Z,85.60
2022-10-21T15:56:10.145Z,85.60
2022-10-21T16:01:10.189Z,86.95
2022-10-21T16:06:10.028Z,87.09
2022-10-21T16:16:09.958Z,86.69
2022-10-21T16:21:09.927Z,87.43
2022-10-21T16:26:09.809Z,87.94
2022-10-21T16:31:09.734Z,89.29
2022-10-21T16:36:09.704Z,88.79
2022-10-21T16:41:09.633Z,90.08
2022-10-21T16:46:09.575Z,89.39
2022-10-21T16:51:09.520Z,88.68
2022-10-21T16:56:09.444Z,89.84
2022-10-21T17:01:09.611Z,89.54
2022-10-21T17:06:09.345Z,89.43
2022-10-21T17:11:09.303Z,89.78
2022-10-21T17:16:09.225Z,89.88
2022-10-21T17:21:09.198Z,90.08
2022-10-21T17:26:09.143Z,90.43
2022-10-21T17:31:09.044Z,90.83
2022-10-21T17:36:09.004Z,91.44
2022-10-21T17:41:08.955Z,90.98
2022-10-21T17:46:08.893Z,91.22
2022-10-21T17:51:08.845Z,93.04
2022-10-21T17:56:08.776Z,93.39
2022-10-21T18:01:08.774Z,93.79
2022-10-21T18:06:08.691Z,94.36
2022-10-21T18:11:08.628Z,93.29
2022-10-21T18:16:08.557Z,92.03
2022-10-21T18:21:08.512Z,92.38
2022-10-21T18:26:08.447Z,92.44
2022-10-21T18:31:08.404Z,92.44
2022-10-21T18:36:08.349Z,91.73
2022-10-21T18:41:19.537Z,92.38
2022-10-21T18:46:09.251Z,91.97
2022-10-21T18:51:09.166Z,92.32
2022-10-21T18:56:08.144Z,93.03
2022-10-21T19:01:08.154Z,93.13
2022-10-21T19:06:08.013Z,94.04
2022-10-21T19:11:08.963Z,93.23
2022-10-21T19:16:07.915Z,92.99
2022-10-21T19:21:07.887Z,92.38
2022-10-21T19:26:07.802Z,92.42
2022-10-21T19:31:07.764Z,92.12
2022-10-21T19:36:07.702Z,92.22
2022-10-21T19:41:07.648Z,92.02
2022-10-21T19:46:07.595Z,92.06
2022-10-21T19:51:09.605Z,91.96
2022-10-21T19:56:07.475Z,92.21
2022-10-21T20:01:07.432Z,93.57
2022-10-21T20:06:09.362Z,93.67
2022-10-21T20:11:07.285Z,93.67
2022-10-21T20:16:07.325Z,93.91
2022-10-21T20:21:07.196Z,94.32
2022-10-21T20:26:07.187Z,94.42
2022-10-21T20:31:07.113Z,95.03
2022-10-21T20:36:07.047Z,94.83
2022-10-21T20:41:07.324Z,94.73
2022-10-21T20:46:06.974Z,94.93
2022-10-21T20:51:06.931Z,95.03
2022-10-21T20:56:06.881Z,94.83
2022-10-21T21:01:06.859Z,94.53
2022-10-21T21:06:06.778Z,94.67
2022-10-21T21:11:06.654Z,94.57
2022-10-21T21:16:06.648Z,95.18
2022-10-21T21:21:06.655Z,95.38
2022-10-21T21:26:06.494Z,95.48
2022-10-21T21:31:06.511Z,95.07
2022-10-21T21:36:06.490Z,95.58
2022-10-21T21:41:08.211Z,95.48
2022-10-21T21:46:06.262Z,94.98
2022-10-21T21:51:06.190Z,94.98
2022-10-21T21:56:06.156Z,95.63
2022-10-21T22:01:06.506Z,95.48
2022-10-21T22:06:06.042Z,95.38
2022-10-21T22:11:06.169Z,94.77
2022-10-21T22:16:06.119Z,94.61
2022-10-21T22:21:05.947Z,94.92
2022-10-21T22:26:06.960Z,95.12
2022-10-21T22:31:05.780Z,95.02
2022-10-21T22:36:05.791Z,95.17
2022-10-21T22:41:08.551Z,95.57
2022-10-21T22:46:21.458Z,95.57
2022-10-21T22:51:06.507Z,95.57
2022-10-21T22:56:05.471Z,95.26
2022-10-21T23:01:06.567Z,95.41
2022-10-21T23:06:05.530Z,95.57
2022-10-21T23:11:10.144Z,95.67
2022-10-21T23:16:12.422Z,95.10
2022-10-21T23:21:13.330Z,95.51
2022-10-21T23:26:05.329Z,96.28
2022-10-21T23:31:05.100Z,95.37
2022-10-21T23:36:05.039Z,95.47
2022-10-21T23:41:04.965Z,96.12
2022-10-21T23:46:05.071Z,95.67
2022-10-21T23:51:06.008Z,95.17
2022-10-21T23:56:04.925Z,95.10
